n6238p
Posts: 373
Joined: Fri Jan 27, 2006 5:35 am

North Central Super Storm And Altimeter Settings

Tue Oct 26, 2010 12:04 am

I noticed the latest METAR to come out of FAR is:

KFAR 252334Z 15011KT 4SM -RA BR SCT017 BKN022 OVC046 13/12 A2897 RMK AO2 RAB12 P0001

28.97 for the pressure is insane when its not associated with a hurricane or typhoon. When pressures get this low does this effect normal ops for an airline?

This is stuff I've never seen before and apparently the pressure may drop below 28.50 as the night goes on.
To actively root against anybody is just low, and I hope karma comes back at you with a vengeance
 
N243NW
Posts: 1597
Joined: Thu Jul 24, 2003 4:29 am

RE: North Central Super Storm And Altimeter Settings

Wed Oct 27, 2010 6:18 am

Just saw a 28.34 in northwestern Minnesota. I would guess that the low pressures by themselves don't affect ops, but the winds associated with them sure do make for a rough day.

This is apparently the lowest-recorded pressure (with the exception of tropical weather, like hurricanes) for any U.S. land-based weather system - record-breaking. Quite impressive!
B-52s don't take off. They scare the ground away.

Who is online

Users browsing this forum: No registered users and 11 guests